Etterville, Missouri
Current Conditions -  °F | °C
As of 8:15 PM on Monday 22 Dec 2014 (Local Time) from KAIZ Reporting Station
Broken Clouds Broken Clouds  
Wind Chill: 45°   Ceiling: 4600
Heat Index: 48°   Visibility: 10mi
Dew Point: 45°   Wind: 8mph
Humidity: 87%   Direction: 250°WSW
Pressure: 29.54"   Gusts: NA
Location:  38.37°N, 92.47°W
Report Text: KAIZ 230215Z AUTO 25007KT 10SM FEW013 SCT029 BKN046 09/07 A2954 RMK AO1
Loading
Personal Weather Stations






























Interactive Weather Map New forecast layout! Learn more

10-Day Weather Forecast

Advertisements
Track Severe Weather on mobile